sensor_id;sensor_type;location;lat;lon;timestamp;temperature;humidity
28725;DHT22;43472;48.980;9.646;2022-09-03T00:00:54;16.20;99.90
28725;DHT22;43472;48.980;9.646;2022-09-03T00:06:16;16.10;99.90
28725;DHT22;43472;48.980;9.646;2022-09-03T00:11:24;16.20;99.90
28725;DHT22;43472;48.980;9.646;2022-09-03T00:16:34;16.00;99.90
28725;DHT22;43472;48.980;9.646;2022-09-03T00:22:12;15.90;99.90
28725;DHT22;43472;48.980;9.646;2022-09-03T00:27:19;15.90;99.90
28725;DHT22;43472;48.980;9.646;2022-09-03T00:33:20;16.00;99.90
28725;DHT22;43472;48.980;9.646;2022-09-03T00:37:56;16.00;99.90
28725;DHT22;43472;48.980;9.646;2022-09-03T00:43:13;15.90;99.90
28725;DHT22;43472;48.980;9.646;2022-09-03T00:48:29;15.80;99.90
28725;DHT22;43472;48.980;9.646;2022-09-03T00:58:47;15.80;99.90
28725;DHT22;43472;48.980;9.646;2022-09-03T01:09:52;15.70;99.90
28725;DHT22;43472;48.980;9.646;2022-09-03T01:15:07;15.70;99.90
28725;DHT22;43472;48.980;9.646;2022-09-03T01:20:26;15.70;99.90
28725;DHT22;43472;48.980;9.646;2022-09-03T01:30:59;15.80;99.90
28725;DHT22;43472;48.980;9.646;2022-09-03T01:52:20;16.10;99.90
28725;DHT22;43472;48.980;9.646;2022-09-03T01:57:56;16.10;99.90
28725;DHT22;43472;48.980;9.646;2022-09-03T02:03:08;16.80;99.90
28725;DHT22;43472;48.980;9.646;2022-09-03T02:08:41;16.30;99.90
28725;DHT22;43472;48.980;9.646;2022-09-03T02:13:54;16.10;99.90
28725;DHT22;43472;48.980;9.646;2022-09-03T02:19:10;16.20;99.90
28725;DHT22;43472;48.980;9.646;2022-09-03T02:44:30;16.20;99.90
28725;DHT22;43472;48.980;9.646;2022-09-03T02:49:34;16.20;99.90
28725;DHT22;43472;48.980;9.646;2022-09-03T02:54:36;16.30;99.90
28725;DHT22;43472;48.980;9.646;2022-09-03T02:59:41;16.40;99.90
28725;DHT22;43472;48.980;9.646;2022-09-03T03:04:45;16.30;99.90
28725;DHT22;43472;48.980;9.646;2022-09-03T03:19:53;16.20;99.90
28725;DHT22;43472;48.980;9.646;2022-09-03T03:24:55;16.40;99.90
28725;DHT22;43472;48.980;9.646;2022-09-03T03:29:59;16.20;99.90
28725;DHT22;43472;48.980;9.646;2022-09-03T03:35:08;18.40;99.90
28725;DHT22;43472;48.980;9.646;2022-09-03T03:40:12;16.80;99.90
28725;DHT22;43472;48.980;9.646;2022-09-03T03:45:16;16.30;99.90
28725;DHT22;43472;48.980;9.646;2022-09-03T03:55:20;16.10;99.90
28725;DHT22;43472;48.980;9.646;2022-09-03T04:00:24;16.40;99.90
28725;DHT22;43472;48.980;9.646;2022-09-03T04:05:26;16.30;99.90
28725;DHT22;43472;48.980;9.646;2022-09-03T04:10:35;16.30;99.90
28725;DHT22;43472;48.980;9.646;2022-09-03T04:15:37;16.30;99.90
28725;DHT22;43472;48.980;9.646;2022-09-03T04:25:42;16.10;99.90
28725;DHT22;43472;48.980;9.646;2022-09-03T04:30:44;16.20;99.90
28725;DHT22;43472;48.980;9.646;2022-09-03T04:35:49;14.30;99.90
28725;DHT22;43472;48.980;9.646;2022-09-03T04:40:54;16.20;99.90
28725;DHT22;43472;48.980;9.646;2022-09-03T04:46:00;16.20;99.90
28725;DHT22;43472;48.980;9.646;2022-09-03T05:01:45;16.30;99.90
28725;DHT22;43472;48.980;9.646;2022-09-03T05:06:47;16.30;99.90
28725;DHT22;43472;48.980;9.646;2022-09-03T05:11:52;15.70;99.90
28725;DHT22;43472;48.980;9.646;2022-09-03T05:16:54;15.70;99.90
28725;DHT22;43472;48.980;9.646;2022-09-03T05:21:56;16.00;99.90
28725;DHT22;43472;48.980;9.646;2022-09-03T05:32:00;16.30;99.90
28725;DHT22;43472;48.980;9.646;2022-09-03T05:37:03;16.20;99.90
28725;DHT22;43472;48.980;9.646;2022-09-03T05:42:05;16.00;99.90
28725;DHT22;43472;48.980;9.646;2022-09-03T05:57:15;16.40;99.90
28725;DHT22;43472;48.980;9.646;2022-09-03T06:07:20;16.50;99.90
28725;DHT22;43472;48.980;9.646;2022-09-03T06:12:22;16.50;99.90
28725;DHT22;43472;48.980;9.646;2022-09-03T06:17:24;16.60;99.90
28725;DHT22;43472;48.980;9.646;2022-09-03T06:22:26;16.90;99.90
28725;DHT22;43472;48.980;9.646;2022-09-03T06:27:30;17.00;99.90
28725;DHT22;43472;48.980;9.646;2022-09-03T06:32:32;17.10;99.90
28725;DHT22;43472;48.980;9.646;2022-09-03T06:37:41;17.10;99.90
28725;DHT22;43472;48.980;9.646;2022-09-03T06:42:43;17.30;99.90
28725;DHT22;43472;48.980;9.646;2022-09-03T06:47:46;17.30;99.90
28725;DHT22;43472;48.980;9.646;2022-09-03T06:52:52;17.20;99.90
28725;DHT22;43472;48.980;9.646;2022-09-03T07:13:03;17.60;99.90
28725;DHT22;43472;48.980;9.646;2022-09-03T07:18:07;17.50;99.90
28725;DHT22;43472;48.980;9.646;2022-09-03T07:33:13;17.90;99.90
28725;DHT22;43472;48.980;9.646;2022-09-03T07:38:17;18.00;99.90
28725;DHT22;43472;48.980;9.646;2022-09-03T07:43:33;18.40;99.90
28725;DHT22;43472;48.980;9.646;2022-09-03T07:53:38;18.40;99.90
28725;DHT22;43472;48.980;9.646;2022-09-03T07:58:40;18.50;99.90
28725;DHT22;43472;48.980;9.646;2022-09-03T08:03:47;18.60;99.90
28725;DHT22;43472;48.980;9.646;2022-09-03T08:09:10;19.00;99.90
28725;DHT22;43472;48.980;9.646;2022-09-03T08:14:14;18.90;99.90
28725;DHT22;43472;48.980;9.646;2022-09-03T08:19:17;19.10;99.90
28725;DHT22;43472;48.980;9.646;2022-09-03T08:24:19;19.30;99.90
28725;DHT22;43472;48.980;9.646;2022-09-03T08:29:26;19.40;99.90
28725;DHT22;43472;48.980;9.646;2022-09-03T08:34:28;19.90;99.90
28725;DHT22;43472;48.980;9.646;2022-09-03T08:39:30;20.00;99.90
28725;DHT22;43472;48.980;9.646;2022-09-03T08:44:58;20.30;99.90
28725;DHT22;43472;48.980;9.646;2022-09-03T08:50:15;20.20;99.90
28725;DHT22;43472;48.980;9.646;2022-09-03T08:55:25;20.40;99.90
28725;DHT22;43472;48.980;9.646;2022-09-03T09:11:46;21.30;99.90
28725;DHT22;43472;48.980;9.646;2022-09-03T09:22:13;21.60;99.90
28725;DHT22;43472;48.980;9.646;2022-09-03T09:27:18;21.60;99.90
28725;DHT22;43472;48.980;9.646;2022-09-03T09:32:21;22.10;99.90
28725;DHT22;43472;48.980;9.646;2022-09-03T09:37:24;22.30;99.90
28725;DHT22;43472;48.980;9.646;2022-09-03T09:42:26;22.50;99.90
28725;DHT22;43472;48.980;9.646;2022-09-03T09:47:37;22.50;99.90
28725;DHT22;43472;48.980;9.646;2022-09-03T09:52:39;22.20;99.90
28725;DHT22;43472;48.980;9.646;2022-09-03T09:57:41;21.90;99.90
28725;DHT22;43472;48.980;9.646;2022-09-03T10:02:48;22.20;99.90
28725;DHT22;43472;48.980;9.646;2022-09-03T10:07:56;22.20;99.90
28725;DHT22;43472;48.980;9.646;2022-09-03T10:13:05;21.90;99.90
28725;DHT22;43472;48.980;9.646;2022-09-03T10:23:34;21.80;99.90
28725;DHT22;43472;48.980;9.646;2022-09-03T10:28:38;21.80;99.90
28725;DHT22;43472;48.980;9.646;2022-09-03T10:34:15;22.30;99.90
28725;DHT22;43472;48.980;9.646;2022-09-03T10:39:30;23.10;99.90
28725;DHT22;43472;48.980;9.646;2022-09-03T10:56:04;22.70;99.90
28725;DHT22;43472;48.980;9.646;2022-09-03T11:06:31;22.90;99.90
28725;DHT22;43472;48.980;9.646;2022-09-03T11:11:43;24.80;99.90
28725;DHT22;43472;48.980;9.646;2022-09-03T11:16:51;24.80;99.90
28725;DHT22;43472;48.980;9.646;2022-09-03T11:21:54;24.10;99.90
28725;DHT22;43472;48.980;9.646;2022-09-03T11:27:29;22.70;99.90
28725;DHT22;43472;48.980;9.646;2022-09-03T11:32:54;22.20;99.90
28725;DHT22;43472;48.980;9.646;2022-09-03T11:38:03;24.20;99.90
28725;DHT22;43472;48.980;9.646;2022-09-03T11:48:33;23.50;99.90
28725;DHT22;43472;48.980;9.646;2022-09-03T11:53:35;23.40;99.90
28725;DHT22;43472;48.980;9.646;2022-09-03T11:58:39;22.90;99.90
28725;DHT22;43472;48.980;9.646;2022-09-03T12:03:52;23.10;99.90
28725;DHT22;43472;48.980;9.646;2022-09-03T12:09:13;23.00;99.90
28725;DHT22;43472;48.980;9.646;2022-09-03T12:19:54;22.80;99.90
28725;DHT22;43472;48.980;9.646;2022-09-03T12:25:07;22.70;99.90
28725;DHT22;43472;48.980;9.646;2022-09-03T12:30:18;22.40;99.90
28725;DHT22;43472;48.980;9.646;2022-09-03T12:35:23;22.00;99.90
28725;DHT22;43472;48.980;9.646;2022-09-03T12:40:45;22.30;99.90
28725;DHT22;43472;48.980;9.646;2022-09-03T12:46:13;22.30;99.90
28725;DHT22;43472;48.980;9.646;2022-09-03T12:51:36;22.20;99.90
28725;DHT22;43472;48.980;9.646;2022-09-03T12:56:58;22.20;99.90
28725;DHT22;43472;48.980;9.646;2022-09-03T13:02:05;22.00;99.90
28725;DHT22;43472;48.980;9.646;2022-09-03T13:07:32;21.80;99.90
28725;DHT22;43472;48.980;9.646;2022-09-03T13:12:46;21.60;99.90
28725;DHT22;43472;48.980;9.646;2022-09-03T13:39:01;20.80;99.90
28725;DHT22;43472;48.980;9.646;2022-09-03T13:54:58;19.90;99.90
28725;DHT22;43472;48.980;9.646;2022-09-03T14:00:04;19.60;99.90
28725;DHT22;43472;48.980;9.646;2022-09-03T14:22:00;21.10;99.90
28725;DHT22;43472;48.980;9.646;2022-09-03T14:27:02;22.70;99.90
28725;DHT22;43472;48.980;9.646;2022-09-03T14:32:12;24.20;99.90
28725;DHT22;43472;48.980;9.646;2022-09-03T14:43:29;22.60;99.90
28725;DHT22;43472;48.980;9.646;2022-09-03T14:48:52;22.70;99.90
28725;DHT22;43472;48.980;9.646;2022-09-03T15:00:26;21.60;99.90
28725;DHT22;43472;48.980;9.646;2022-09-03T15:10:58;21.40;99.90
28725;DHT22;43472;48.980;9.646;2022-09-03T15:26:31;20.70;99.90
28725;DHT22;43472;48.980;9.646;2022-09-03T15:36:57;20.30;99.90
28725;DHT22;43472;48.980;9.646;2022-09-03T15:42:16;20.50;99.90
28725;DHT22;43472;48.980;9.646;2022-09-03T15:52:57;20.30;99.90
28725;DHT22;43472;48.980;9.646;2022-09-03T15:58:21;20.20;99.90
28725;DHT22;43472;48.980;9.646;2022-09-03T16:03:45;20.20;99.90
28725;DHT22;43472;48.980;9.646;2022-09-03T16:09:02;20.30;99.90
28725;DHT22;43472;48.980;9.646;2022-09-03T16:14:14;20.40;99.90
28725;DHT22;43472;48.980;9.646;2022-09-03T16:30:10;20.20;99.90
28725;DHT22;43472;48.980;9.646;2022-09-03T17:13:51;19.90;99.90
28725;DHT22;43472;48.980;9.646;2022-09-03T17:29:29;20.00;99.90
28725;DHT22;43472;48.980;9.646;2022-09-03T17:39:46;19.80;99.90
28725;DHT22;43472;48.980;9.646;2022-09-03T17:45:15;19.60;99.90
28725;DHT22;43472;48.980;9.646;2022-09-03T17:50:25;19.50;99.90
28725;DHT22;43472;48.980;9.646;2022-09-03T18:06:03;19.10;99.90
28725;DHT22;43472;48.980;9.646;2022-09-03T18:11:19;19.20;99.90
28725;DHT22;43472;48.980;9.646;2022-09-03T18:16:27;19.00;99.90
28725;DHT22;43472;48.980;9.646;2022-09-03T18:21:34;18.60;99.90
28725;DHT22;43472;48.980;9.646;2022-09-03T18:27:03;18.60;99.90
28725;DHT22;43472;48.980;9.646;2022-09-03T18:32:24;18.60;99.90
28725;DHT22;43472;48.980;9.646;2022-09-03T18:37:45;18.70;99.90
28725;DHT22;43472;48.980;9.646;2022-09-03T18:43:30;18.70;99.90
28725;DHT22;43472;48.980;9.646;2022-09-03T18:54:53;18.40;99.90
28725;DHT22;43472;48.980;9.646;2022-09-03T19:00:15;18.30;99.90
28725;DHT22;43472;48.980;9.646;2022-09-03T19:11:49;18.50;99.90
28725;DHT22;43472;48.980;9.646;2022-09-03T19:17:46;18.40;99.90
28725;DHT22;43472;48.980;9.646;2022-09-03T19:22:59;18.30;99.90
28725;DHT22;43472;48.980;9.646;2022-09-03T19:28:27;18.20;99.90
28725;DHT22;43472;48.980;9.646;2022-09-03T19:34:21;18.20;99.90
28725;DHT22;43472;48.980;9.646;2022-09-03T19:39:50;17.90;99.90
28725;DHT22;43472;48.980;9.646;2022-09-03T19:51:30;18.00;99.90
28725;DHT22;43472;48.980;9.646;2022-09-03T19:56:53;17.90;99.90
28725;DHT22;43472;48.980;9.646;2022-09-03T20:02:14;18.00;99.90
28725;DHT22;43472;48.980;9.646;2022-09-03T20:07:36;17.90;99.90
28725;DHT22;43472;48.980;9.646;2022-09-03T20:13:08;17.60;99.90
28725;DHT22;43472;48.980;9.646;2022-09-03T20:23:53;17.90;99.90
28725;DHT22;43472;48.980;9.646;2022-09-03T20:29:09;17.90;99.90
28725;DHT22;43472;48.980;9.646;2022-09-03T20:34:17;17.90;99.90
28725;DHT22;43472;48.980;9.646;2022-09-03T20:50:24;17.80;99.90
28725;DHT22;43472;48.980;9.646;2022-09-03T20:55:41;17.30;99.90
28725;DHT22;43472;48.980;9.646;2022-09-03T21:01:03;17.30;99.90
28725;DHT22;43472;48.980;9.646;2022-09-03T21:27:18;17.70;99.90
28725;DHT22;43472;48.980;9.646;2022-09-03T21:32:32;17.70;99.90
28725;DHT22;43472;48.980;9.646;2022-09-03T21:37:36;17.70;99.90
28725;DHT22;43472;48.980;9.646;2022-09-03T21:42:47;17.60;99.90
28725;DHT22;43472;48.980;9.646;2022-09-03T21:47:57;17.50;99.90
28725;DHT22;43472;48.980;9.646;2022-09-03T21:53:26;17.60;99.90
28725;DHT22;43472;48.980;9.646;2022-09-03T22:03:58;17.20;99.90
28725;DHT22;43472;48.980;9.646;2022-09-03T22:14:23;17.20;99.90
28725;DHT22;43472;48.980;9.646;2022-09-03T22:19:30;17.20;99.90
28725;DHT22;43472;48.980;9.646;2022-09-03T22:29:58;17.00;99.90
28725;DHT22;43472;48.980;9.646;2022-09-03T22:40:53;17.40;99.90
28725;DHT22;43472;48.980;9.646;2022-09-03T22:46:11;17.30;99.90
28725;DHT22;43472;48.980;9.646;2022-09-03T22:51:15;17.00;99.90
28725;DHT22;43472;48.980;9.646;2022-09-03T22:56:22;16.80;99.90
28725;DHT22;43472;48.980;9.646;2022-09-03T23:01:36;16.50;99.90
28725;DHT22;43472;48.980;9.646;2022-09-03T23:07:30;16.50;99.90
28725;DHT22;43472;48.980;9.646;2022-09-03T23:12:11;16.20;99.90
28725;DHT22;43472;48.980;9.646;2022-09-03T23:17:23;16.20;99.90
28725;DHT22;43472;48.980;9.646;2022-09-03T23:22:47;16.20;99.90
28725;DHT22;43472;48.980;9.646;2022-09-03T23:32:58;16.60;99.90
28725;DHT22;43472;48.980;9.646;2022-09-03T23:38:15;16.50;99.90
